createdAt,value
2022-10-13T00:00:04.765Z,20.9
2022-10-13T00:01:08.320Z,18.9
2022-10-13T00:02:04.434Z,21.3
2022-10-13T00:03:04.715Z,20.4
2022-10-13T00:04:04.107Z,18.9
2022-10-13T00:05:04.099Z,19.8
2022-10-13T00:06:05.076Z,17.9
2022-10-13T00:07:04.363Z,18.8
2022-10-13T00:08:04.199Z,20.0
2022-10-13T00:09:04.533Z,19.8
2022-10-13T00:10:04.281Z,21.0
2022-10-13T00:11:12.447Z,19.5
2022-10-13T00:12:04.201Z,19.7
2022-10-13T00:13:04.341Z,18.1
2022-10-13T00:14:04.504Z,17.8
2022-10-13T00:15:05.807Z,19.3
2022-10-13T00:16:04.778Z,19.4
2022-10-13T00:17:03.984Z,19.2
2022-10-13T00:18:04.740Z,20.7
2022-10-13T00:19:04.635Z,16.7
2022-10-13T00:20:05.341Z,18.8
2022-10-13T00:21:07.893Z,18.3
2022-10-13T00:22:03.897Z,19.7
2022-10-13T00:23:04.394Z,18.1
2022-10-13T00:24:04.092Z,20.3
2022-10-13T00:25:04.669Z,18.5
2022-10-13T00:26:04.805Z,19.4
2022-10-13T00:27:04.359Z,18.7
2022-10-13T00:28:04.625Z,19.0
2022-10-13T00:29:03.981Z,18.9
2022-10-13T00:30:04.645Z,19.3
2022-10-13T00:31:14.941Z,18.2
2022-10-13T00:32:04.724Z,18.5
2022-10-13T00:33:04.878Z,18.0
2022-10-13T00:34:03.958Z,18.3
2022-10-13T00:35:04.860Z,18.4
2022-10-13T00:36:05.415Z,20.0
2022-10-13T00:37:04.894Z,18.7
2022-10-13T00:38:04.151Z,17.6
2022-10-13T00:39:03.953Z,17.7
2022-10-13T00:40:04.729Z,18.0
2022-10-13T00:41:04.701Z,18.7
2022-10-13T00:42:05.702Z,19.7
2022-10-13T00:43:09.345Z,19.4
2022-10-13T00:44:05.689Z,16.0
2022-10-13T00:45:09.582Z,18.1
2022-10-13T00:46:04.002Z,18.1
2022-10-13T00:47:04.445Z,18.6
2022-10-13T00:48:04.157Z,18.6
2022-10-13T00:49:07.267Z,17.3
2022-10-13T00:50:05.022Z,18.9
2022-10-13T00:51:04.737Z,18.0
2022-10-13T00:52:04.513Z,18.3
2022-10-13T00:53:04.384Z,19.0
2022-10-13T00:54:04.898Z,17.8
2022-10-13T00:55:05.203Z,17.2
2022-10-13T00:56:06.920Z,17.1
2022-10-13T00:57:05.336Z,18.6
2022-10-13T00:58:06.811Z,16.1
2022-10-13T00:59:10.862Z,18.1
2022-10-13T01:00:05.157Z,17.0
2022-10-13T01:01:05.369Z,17.9
2022-10-13T01:02:04.733Z,17.4
2022-10-13T01:03:04.414Z,16.1
2022-10-13T01:04:04.217Z,17.6
2022-10-13T01:05:05.407Z,19.2
2022-10-13T01:06:05.838Z,17.7
2022-10-13T01:07:05.505Z,18.8
2022-10-13T01:08:04.783Z,17.5
2022-10-13T01:09:04.144Z,17.2
2022-10-13T01:10:04.392Z,16.3
2022-10-13T01:11:22.421Z,17.3
2022-10-13T01:12:09.441Z,19.6
2022-10-13T01:13:22.391Z,17.4
2022-10-13T01:14:12.483Z,17.0
2022-10-13T01:15:09.360Z,17.6
2022-10-13T01:16:11.725Z,18.7
2022-10-13T01:17:22.415Z,19.0
2022-10-13T01:18:17.041Z,18.4
2022-10-13T01:19:22.386Z,16.1
2022-10-13T01:20:09.282Z,17.4
2022-10-13T01:21:20.964Z,17.2
2022-10-13T01:22:09.417Z,17.7
2022-10-13T01:23:22.392Z,17.5
2022-10-13T01:24:14.959Z,17.2
2022-10-13T01:25:11.454Z,17.0
2022-10-13T01:26:18.447Z,16.4
2022-10-13T01:27:09.344Z,16.0
2022-10-13T01:28:09.140Z,16.6
2022-10-13T01:29:21.898Z,16.7
2022-10-13T01:30:05.388Z,16.4
2022-10-13T01:31:12.446Z,18.9
2022-10-13T01:32:21.421Z,15.5
2022-10-13T01:33:22.895Z,17.5
2022-10-13T01:34:09.385Z,16.6
2022-10-13T01:35:11.930Z,16.0
2022-10-13T01:36:07.237Z,15.7
2022-10-13T01:37:09.354Z,16.8
2022-10-13T01:38:09.628Z,16.3
2022-10-13T01:39:11.967Z,17.3
2022-10-13T01:40:20.315Z,17.0
2022-10-13T01:41:11.477Z,16.9
2022-10-13T01:42:09.266Z,17.6
2022-10-13T01:43:12.778Z,15.8
2022-10-13T01:44:09.374Z,16.9
2022-10-13T01:45:06.547Z,16.4
2022-10-13T01:46:12.489Z,17.7
2022-10-13T01:47:05.075Z,17.1
2022-10-13T01:48:05.055Z,15.4
2022-10-13T01:49:08.517Z,18.4
2022-10-13T01:50:05.398Z,16.6
2022-10-13T01:51:06.214Z,16.1
2022-10-13T01:52:06.434Z,15.0
2022-10-13T01:53:05.149Z,17.1
2022-10-13T01:54:03.986Z,14.7
2022-10-13T01:55:08.600Z,17.7
2022-10-13T01:56:04.742Z,14.8
2022-10-13T01:57:04.390Z,17.0
2022-10-13T01:58:04.147Z,15.1
2022-10-13T01:59:06.456Z,15.4
2022-10-13T02:00:09.770Z,15.5
2022-10-13T02:01:22.411Z,17.6
2022-10-13T02:02:11.986Z,15.0
2022-10-13T02:03:18.082Z,14.4
2022-10-13T02:04:23.986Z,16.0
2022-10-13T02:05:24.031Z,14.7
2022-10-13T02:06:17.991Z,15.9
2022-10-13T02:07:10.094Z,15.2
2022-10-13T02:08:07.647Z,15.4
2022-10-13T02:09:09.377Z,15.7
2022-10-13T02:10:09.120Z,15.1
2022-10-13T02:11:09.431Z,16.6
2022-10-13T02:12:20.786Z,15.4
2022-10-13T02:13:05.788Z,15.7
2022-10-13T02:14:08.735Z,16.9
2022-10-13T02:15:06.499Z,15.4
2022-10-13T02:16:04.665Z,17.5
2022-10-13T02:17:04.459Z,16.1
2022-10-13T02:18:04.628Z,14.3
2022-10-13T02:19:05.352Z,16.6
2022-10-13T02:20:04.952Z,15.1
2022-10-13T02:21:04.096Z,17.1
2022-10-13T02:22:06.620Z,16.5
2022-10-13T02:23:07.578Z,17.6
2022-10-13T02:24:04.820Z,16.2
2022-10-13T02:25:04.498Z,17.4
2022-10-13T02:26:05.018Z,17.8
2022-10-13T02:27:05.053Z,15.4
2022-10-13T02:28:04.903Z,15.6
2022-10-13T02:29:07.997Z,16.3
2022-10-13T02:30:04.558Z,15.4
2022-10-13T02:31:04.586Z,15.9
2022-10-13T02:32:04.353Z,14.3
2022-10-13T02:33:04.261Z,16.4
2022-10-13T02:34:04.986Z,16.5
2022-10-13T02:35:04.413Z,15.1
2022-10-13T02:36:04.324Z,15.4
2022-10-13T02:37:04.143Z,15.0
2022-10-13T02:38:04.596Z,15.6
2022-10-13T02:39:05.009Z,15.1
2022-10-13T02:40:04.462Z,15.1
2022-10-13T02:41:04.363Z,14.6
2022-10-13T02:42:04.264Z,14.9
2022-10-13T02:43:04.086Z,15.9
2022-10-13T02:44:05.348Z,14.4
2022-10-13T02:45:04.927Z,15.0
2022-10-13T02:46:04.477Z,15.6
2022-10-13T02:47:04.220Z,15.7
2022-10-13T02:48:04.138Z,15.0
2022-10-13T02:49:05.150Z,16.8
2022-10-13T02:50:04.880Z,15.9
2022-10-13T02:51:04.196Z,15.4
2022-10-13T02:52:04.207Z,15.3
2022-10-13T02:53:04.409Z,14.6
2022-10-13T02:54:04.281Z,14.2
2022-10-13T02:55:04.565Z,14.9
2022-10-13T02:56:03.984Z,14.3
2022-10-13T02:57:04.630Z,15.0
2022-10-13T02:58:04.456Z,14.3
2022-10-13T02:59:04.286Z,13.4
2022-10-13T03:00:04.873Z,14.0
2022-10-13T03:01:10.943Z,15.1
2022-10-13T03:02:04.685Z,13.5
2022-10-13T03:03:04.814Z,14.6
2022-10-13T03:04:04.666Z,14.3
2022-10-13T03:05:04.394Z,14.6
2022-10-13T03:06:04.159Z,13.6
2022-10-13T03:07:04.634Z,12.8
2022-10-13T03:08:04.045Z,14.3
2022-10-13T03:09:04.690Z,14.0
2022-10-13T03:10:04.329Z,14.1
2022-10-13T03:11:04.397Z,14.6
2022-10-13T03:12:04.745Z,14.7
2022-10-13T03:13:04.376Z,14.5
2022-10-13T03:14:04.603Z,14.9
2022-10-13T03:15:04.764Z,14.5
2022-10-13T03:16:05.108Z,15.6
2022-10-13T03:17:04.511Z,14.8
2022-10-13T03:18:04.378Z,15.4
2022-10-13T03:19:04.127Z,14.0
2022-10-13T03:20:04.940Z,14.1
2022-10-13T03:21:05.046Z,14.2
2022-10-13T03:22:03.976Z,15.0
2022-10-13T03:23:04.255Z,15.9
2022-10-13T03:24:04.348Z,13.9
2022-10-13T03:25:05.115Z,15.3
2022-10-13T03:26:04.743Z,14.4
2022-10-13T03:27:04.395Z,14.0
2022-10-13T03:28:04.205Z,14.4
2022-10-13T03:29:04.039Z,13.5
2022-10-13T03:30:04.702Z,14.8
2022-10-13T03:31:05.209Z,15.0
2022-10-13T03:32:04.487Z,13.7
2022-10-13T03:33:04.165Z,15.8
2022-10-13T03:34:04.389Z,13.9
2022-10-13T03:35:04.757Z,14.4
2022-10-13T03:36:04.913Z,13.9
2022-10-13T03:37:04.010Z,13.7
2022-10-13T03:38:04.103Z,16.0
2022-10-13T03:39:04.009Z,15.2
2022-10-13T03:40:04.649Z,13.7
2022-10-13T03:41:07.659Z,14.8
2022-10-13T03:42:04.740Z,13.6
2022-10-13T03:43:03.999Z,12.9
2022-10-13T03:44:04.758Z,13.7
2022-10-13T03:45:05.152Z,12.7
2022-10-13T03:46:05.062Z,13.6
2022-10-13T03:47:04.372Z,12.9
2022-10-13T03:48:04.650Z,13.6
2022-10-13T03:49:04.970Z,13.9
2022-10-13T03:50:04.626Z,13.3
2022-10-13T03:51:08.371Z,14.3
2022-10-13T03:52:04.269Z,13.8
2022-10-13T03:53:04.154Z,14.7
2022-10-13T03:54:04.233Z,14.3
2022-10-13T03:55:04.298Z,15.0
2022-10-13T03:56:04.819Z,13.5
2022-10-13T03:57:04.125Z,13.6
2022-10-13T03:58:04.443Z,15.3
2022-10-13T03:59:06.155Z,14.1
2022-10-13T04:00:04.875Z,14.5
2022-10-13T04:01:04.387Z,12.8
2022-10-13T04:02:04.167Z,13.4
2022-10-13T04:03:04.459Z,13.4
2022-10-13T04:04:04.277Z,13.1
2022-10-13T04:05:04.388Z,12.2
2022-10-13T04:06:05.006Z,13.2
2022-10-13T04:07:04.158Z,13.6
2022-10-13T04:08:04.503Z,14.8
2022-10-13T04:09:04.355Z,14.7
2022-10-13T04:10:06.849Z,13.7
2022-10-13T04:11:05.340Z,13.4
2022-10-13T04:12:04.780Z,13.4
2022-10-13T04:13:04.034Z,13.6
2022-10-13T04:14:04.756Z,11.3
2022-10-13T04:15:04.906Z,12.9
2022-10-13T04:16:08.321Z,12.2
2022-10-13T04:17:04.183Z,13.3
2022-10-13T04:18:04.576Z,12.3
2022-10-13T04:19:04.464Z,11.7
2022-10-13T04:20:05.122Z,12.0
2022-10-13T04:21:11.161Z,13.7
2022-10-13T04:22:04.266Z,13.5
2022-10-13T04:23:04.515Z,13.3
2022-10-13T04:24:04.627Z,13.4
2022-10-13T04:25:05.477Z,13.0
2022-10-13T04:26:04.577Z,12.5
2022-10-13T04:27:04.028Z,13.7
2022-10-13T04:28:07.550Z,13.3
2022-10-13T04:29:05.504Z,12.6
2022-10-13T04:30:07.115Z,12.3
2022-10-13T04:31:04.024Z,12.5
2022-10-13T04:32:03.940Z,13.0
2022-10-13T04:33:04.216Z,14.1
2022-10-13T04:34:04.834Z,12.8
2022-10-13T04:35:04.824Z,13.6
2022-10-13T04:36:04.985Z,13.7
2022-10-13T04:37:04.077Z,11.9
2022-10-13T04:38:04.045Z,12.9
2022-10-13T04:39:04.239Z,12.0
2022-10-13T04:40:04.381Z,11.7
2022-10-13T04:41:04.978Z,12.8
2022-10-13T04:42:04.651Z,12.9
2022-10-13T04:43:04.159Z,14.9
2022-10-13T04:44:04.355Z,11.7
2022-10-13T04:45:04.686Z,13.7
2022-10-13T04:46:05.537Z,14.4
2022-10-13T04:47:04.163Z,12.2
2022-10-13T04:48:04.715Z,12.0
2022-10-13T04:49:04.573Z,10.9
2022-10-13T04:50:04.898Z,13.0
2022-10-13T04:51:05.648Z,14.1
2022-10-13T04:52:03.955Z,11.0
2022-10-13T04:53:04.596Z,11.7
2022-10-13T04:54:04.503Z,13.1
2022-10-13T04:55:05.128Z,13.0
2022-10-13T04:56:05.999Z,12.3
2022-10-13T04:57:03.878Z,12.6
2022-10-13T04:58:04.249Z,13.0
2022-10-13T04:59:04.267Z,11.8
2022-10-13T05:00:05.246Z,13.1
2022-10-13T05:01:05.458Z,10.7
2022-10-13T05:02:03.938Z,11.2
2022-10-13T05:03:04.561Z,11.4
2022-10-13T05:04:04.791Z,11.8
2022-10-13T05:05:04.701Z,10.3
2022-10-13T05:06:04.629Z,12.7
2022-10-13T05:07:17.641Z,12.2
2022-10-13T05:08:04.288Z,12.0
2022-10-13T05:09:04.061Z,12.3
2022-10-13T05:10:04.340Z,12.0
2022-10-13T05:11:04.663Z,13.1
2022-10-13T05:12:04.871Z,12.7
2022-10-13T05:13:04.668Z,11.9
2022-10-13T05:14:04.359Z,12.1
2022-10-13T05:15:04.295Z,13.6
2022-10-13T05:16:05.677Z,12.7
2022-10-13T05:17:04.650Z,10.9
2022-10-13T05:18:04.583Z,13.5
2022-10-13T05:19:04.305Z,10.5
2022-10-13T05:20:04.825Z,11.5
2022-10-13T05:21:11.468Z,11.2
2022-10-13T05:22:04.653Z,12.4
2022-10-13T05:23:04.450Z,12.7
2022-10-13T05:24:05.053Z,11.6
2022-10-13T05:25:04.643Z,11.4
2022-10-13T05:26:05.293Z,11.2
2022-10-13T05:27:10.905Z,12.0
2022-10-13T05:28:04.976Z,11.0
2022-10-13T05:29:05.103Z,11.7
2022-10-13T05:30:04.323Z,12.8
2022-10-13T05:31:16.616Z,11.4
2022-10-13T05:32:04.777Z,11.3
2022-10-13T05:33:04.396Z,12.2
2022-10-13T05:34:04.295Z,11.4
2022-10-13T05:35:04.443Z,12.4
2022-10-13T05:36:06.202Z,11.5
2022-10-13T05:37:04.601Z,13.4
2022-10-13T05:38:03.907Z,12.4
2022-10-13T05:39:05.734Z,10.9
2022-10-13T05:40:04.412Z,11.7
2022-10-13T05:41:05.574Z,13.6
2022-10-13T05:42:04.523Z,11.8
2022-10-13T05:43:04.321Z,11.4
2022-10-13T05:44:06.303Z,12.8
2022-10-13T05:45:04.343Z,11.1
2022-10-13T05:46:04.904Z,11.4
2022-10-13T05:47:07.511Z,11.5
2022-10-13T05:48:04.536Z,10.6
2022-10-13T05:49:04.269Z,11.8
2022-10-13T05:50:04.939Z,11.5
2022-10-13T05:51:06.967Z,12.1
2022-10-13T05:52:07.283Z,12.1
2022-10-13T05:53:04.354Z,11.1
2022-10-13T05:54:07.563Z,10.6
2022-10-13T05:55:04.891Z,10.9
2022-10-13T05:56:07.417Z,11.1
2022-10-13T05:57:08.938Z,11.5
2022-10-13T05:58:03.854Z,12.5
2022-10-13T05:59:05.509Z,10.4
2022-10-13T06:00:07.028Z,11.8
2022-10-13T06:01:09.107Z,9.9
2022-10-13T06:02:05.398Z,10.4
2022-10-13T06:03:10.049Z,11.9
2022-10-13T06:04:07.381Z,11.4
2022-10-13T06:05:05.724Z,11.5
2022-10-13T06:06:04.358Z,10.8
2022-10-13T06:07:04.195Z,10.9
2022-10-13T06:08:04.709Z,10.8
2022-10-13T06:09:04.578Z,12.1
2022-10-13T06:10:04.335Z,10.7
2022-10-13T06:11:04.636Z,10.4
2022-10-13T06:12:04.944Z,11.2
2022-10-13T06:13:04.228Z,11.9
2022-10-13T06:14:04.482Z,11.9
2022-10-13T06:15:04.541Z,11.7
2022-10-13T06:16:04.281Z,11.2
2022-10-13T06:17:03.929Z,11.2
2022-10-13T06:18:08.464Z,12.0
2022-10-13T06:19:04.857Z,10.2
2022-10-13T06:20:05.580Z,11.8
2022-10-13T06:21:04.819Z,11.0
2022-10-13T06:22:04.481Z,11.6
2022-10-13T06:23:04.394Z,11.2
2022-10-13T06:24:04.753Z,11.7
2022-10-13T06:25:05.653Z,10.6
2022-10-13T06:26:05.545Z,10.8
2022-10-13T06:27:03.899Z,11.7
2022-10-13T06:28:04.136Z,11.6
2022-10-13T06:29:03.980Z,10.4
2022-10-13T06:30:05.630Z,10.3
2022-10-13T06:31:05.135Z,11.3
2022-10-13T06:32:04.905Z,11.0
2022-10-13T06:33:04.578Z,10.9
2022-10-13T06:34:03.919Z,11.9
2022-10-13T06:35:04.737Z,10.6
2022-10-13T06:36:04.730Z,11.6
2022-10-13T06:37:04.288Z,12.0
2022-10-13T06:38:04.090Z,10.0
2022-10-13T06:39:04.294Z,11.4
2022-10-13T06:40:04.534Z,10.3
2022-10-13T06:41:04.931Z,12.3
2022-10-13T06:42:04.275Z,10.9
2022-10-13T06:43:04.046Z,9.8
2022-10-13T06:44:04.771Z,11.4
2022-10-13T06:45:04.926Z,11.2
2022-10-13T06:46:04.084Z,11.0
2022-10-13T06:47:04.721Z,9.8
2022-10-13T06:48:04.584Z,10.5
2022-10-13T06:49:04.329Z,10.6
2022-10-13T06:50:04.473Z,9.9
2022-10-13T06:51:05.485Z,11.6
2022-10-13T06:52:04.052Z,12.2
2022-10-13T06:53:03.983Z,10.8
2022-10-13T06:54:04.280Z,11.3
2022-10-13T06:55:04.633Z,11.2
2022-10-13T06:56:05.082Z,11.3
2022-10-13T06:57:05.100Z,12.2
2022-10-13T06:58:04.390Z,11.7
2022-10-13T06:59:04.216Z,10.7
2022-10-13T07:00:04.858Z,10.0
2022-10-13T07:01:05.112Z,10.0
2022-10-13T07:02:04.688Z,9.4
2022-10-13T07:03:03.903Z,11.0
2022-10-13T07:04:04.806Z,10.0
2022-10-13T07:05:04.640Z,9.6
2022-10-13T07:06:04.882Z,9.5
2022-10-13T07:07:04.640Z,11.4
2022-10-13T07:08:04.464Z,9.9
2022-10-13T07:09:04.840Z,10.3
2022-10-13T07:10:04.303Z,10.8
2022-10-13T07:11:05.347Z,11.9
2022-10-13T07:12:04.748Z,9.9
2022-10-13T07:13:04.382Z,11.1
2022-10-13T07:14:04.784Z,12.0
2022-10-13T07:15:04.664Z,12.3
2022-10-13T07:16:04.904Z,11.1
2022-10-13T07:17:04.037Z,10.9
2022-10-13T07:18:04.513Z,12.7
2022-10-13T07:19:04.613Z,11.8
2022-10-13T07:20:07.359Z,11.8
2022-10-13T07:21:04.777Z,11.2
2022-10-13T07:22:04.605Z,13.9
2022-10-13T07:23:04.098Z,13.0
2022-10-13T07:24:04.360Z,12.9
2022-10-13T07:25:04.219Z,12.3
2022-10-13T07:26:11.572Z,12.0
2022-10-13T07:27:07.433Z,11.1
2022-10-13T07:28:04.303Z,12.5
2022-10-13T07:29:04.577Z,13.8
2022-10-13T07:30:05.425Z,12.9
2022-10-13T07:31:11.358Z,14.2
2022-10-13T07:32:04.100Z,14.7
2022-10-13T07:33:04.764Z,13.8
2022-10-13T07:34:04.646Z,14.4
2022-10-13T07:35:04.634Z,17.2
2022-10-13T07:36:04.530Z,15.8
2022-10-13T07:37:04.034Z,14.5
2022-10-13T07:38:04.723Z,13.9
2022-10-13T07:39:04.557Z,15.7
2022-10-13T07:40:05.134Z,15.0
2022-10-13T07:41:05.663Z,14.2
2022-10-13T07:42:04.038Z,15.4
2022-10-13T07:43:04.155Z,14.1
2022-10-13T07:44:04.493Z,16.1
2022-10-13T07:45:05.135Z,13.8
2022-10-13T07:46:04.451Z,16.2
2022-10-13T07:47:03.890Z,14.3
2022-10-13T07:48:04.684Z,12.5
2022-10-13T07:49:04.430Z,14.1
2022-10-13T07:50:04.576Z,12.5
2022-10-13T07:51:07.506Z,13.3
2022-10-13T07:52:04.277Z,14.6
2022-10-13T07:53:04.199Z,13.2
2022-10-13T07:54:03.970Z,12.3
2022-10-13T07:55:05.453Z,13.8
2022-10-13T07:56:05.593Z,12.9
2022-10-13T07:57:04.821Z,14.3
2022-10-13T07:58:04.703Z,14.6
2022-10-13T07:59:04.391Z,14.9
2022-10-13T08:00:05.082Z,14.0
2022-10-13T08:01:04.755Z,12.4
2022-10-13T08:02:04.795Z,14.2
2022-10-13T08:03:04.027Z,13.4
2022-10-13T08:04:04.289Z,13.4
2022-10-13T08:05:04.767Z,13.3
2022-10-13T08:06:04.723Z,14.5
2022-10-13T08:07:05.052Z,14.2
2022-10-13T08:08:04.514Z,13.8
2022-10-13T08:09:07.680Z,14.1
2022-10-13T08:10:05.043Z,13.7
2022-10-13T08:11:05.372Z,14.4
2022-10-13T08:12:04.257Z,12.4
2022-10-13T08:13:04.458Z,13.5
2022-10-13T08:14:04.230Z,13.5
2022-10-13T08:15:06.339Z,14.9
2022-10-13T08:16:04.475Z,16.5
2022-10-13T08:17:04.120Z,15.8
2022-10-13T08:18:04.433Z,16.4
2022-10-13T08:19:04.204Z,14.8
2022-10-13T08:20:05.127Z,15.7
2022-10-13T08:21:39.213Z,14.9
2022-10-13T08:22:09.097Z,15.6
2022-10-13T08:23:04.389Z,15.0
2022-10-13T08:24:11.239Z,14.5
2022-10-13T08:25:04.687Z,16.7
2022-10-13T08:26:04.803Z,16.6
2022-10-13T08:27:04.477Z,15.6
2022-10-13T08:28:04.616Z,14.9
2022-10-13T08:29:21.782Z,13.4
2022-10-13T08:30:04.729Z,14.4
2022-10-13T08:31:04.456Z,13.5
2022-10-13T08:32:04.114Z,15.5
2022-10-13T08:33:04.291Z,15.2
2022-10-13T08:34:04.101Z,13.9
2022-10-13T08:35:04.464Z,12.9
2022-10-13T08:36:04.441Z,15.1
2022-10-13T08:37:04.226Z,14.7
2022-10-13T08:38:04.687Z,14.8
2022-10-13T08:39:04.437Z,13.4
2022-10-13T08:40:04.245Z,13.6
2022-10-13T08:41:09.021Z,15.4
2022-10-13T08:42:08.911Z,14.3
2022-10-13T08:43:05.375Z,13.0
2022-10-13T08:44:59.270Z,13.7
2022-10-13T08:45:36.126Z,14.5
2022-10-13T08:46:04.269Z,14.0
2022-10-13T08:47:22.027Z,13.9
2022-10-13T08:48:17.858Z,12.6
2022-10-13T08:49:05.252Z,13.6
2022-10-13T08:50:09.715Z,12.3
2022-10-13T08:51:05.840Z,11.8
2022-10-13T08:52:04.645Z,11.9
2022-10-13T08:53:06.393Z,13.2
2022-10-13T08:54:04.330Z,11.9
2022-10-13T08:55:05.239Z,12.7
2022-10-13T08:56:18.867Z,13.8
2022-10-13T08:57:03.900Z,12.9
2022-10-13T08:58:24.550Z,13.9
2022-10-13T08:59:04.458Z,13.3
2022-10-13T09:00:05.855Z,12.6
2022-10-13T09:01:14.618Z,14.7
2022-10-13T09:02:09.304Z,14.3
2022-10-13T09:03:09.085Z,12.8
2022-10-13T09:04:26.561Z,13.2
2022-10-13T09:05:09.143Z,13.8
2022-10-13T09:06:14.595Z,15.1
2022-10-13T09:07:09.599Z,14.3
2022-10-13T09:08:09.526Z,14.2
2022-10-13T09:09:05.984Z,14.2
2022-10-13T09:10:04.879Z,14.0
2022-10-13T09:11:04.416Z,14.9
2022-10-13T09:12:04.630Z,13.8
2022-10-13T09:13:04.024Z,11.9
2022-10-13T09:14:06.119Z,13.3
2022-10-13T09:15:06.102Z,12.5
2022-10-13T09:16:04.113Z,14.8
2022-10-13T09:17:18.062Z,12.3
2022-10-13T09:18:09.495Z,13.5
2022-10-13T09:19:22.536Z,12.4
2022-10-13T09:20:06.304Z,11.8
2022-10-13T09:21:14.595Z,12.7
2022-10-13T09:22:23.200Z,14.7
2022-10-13T09:23:19.609Z,13.8
2022-10-13T09:24:06.135Z,13.4
2022-10-13T09:25:11.560Z,12.8
2022-10-13T09:26:12.557Z,12.2
2022-10-13T09:27:06.279Z,12.4
2022-10-13T09:28:08.796Z,12.8
2022-10-13T09:29:08.708Z,12.2
2022-10-13T09:30:22.495Z,13.0
2022-10-13T09:31:14.802Z,12.7
2022-10-13T09:32:20.136Z,14.4
2022-10-13T09:33:12.570Z,11.8
2022-10-13T09:34:23.118Z,13.7
2022-10-13T09:35:17.640Z,13.4
2022-10-13T09:36:06.061Z,13.9
2022-10-13T09:37:05.470Z,13.3
2022-10-13T09:38:05.656Z,11.0
2022-10-13T09:39:11.398Z,11.9
2022-10-13T09:40:08.775Z,11.9
2022-10-13T09:41:15.282Z,11.1
2022-10-13T09:42:21.515Z,11.9
2022-10-13T09:43:05.868Z,11.5
2022-10-13T09:44:11.566Z,11.8
2022-10-13T09:45:17.833Z,14.0
2022-10-13T09:46:09.072Z,11.6
2022-10-13T09:47:04.263Z,12.5
2022-10-13T09:48:06.537Z,12.4
2022-10-13T09:49:06.716Z,12.7
2022-10-13T09:50:09.185Z,12.8
2022-10-13T09:51:04.238Z,12.4
2022-10-13T09:52:05.515Z,10.6
2022-10-13T09:53:18.084Z,12.8
2022-10-13T09:54:04.327Z,13.2
2022-10-13T09:55:09.615Z,12.8
2022-10-13T09:56:15.070Z,12.0
2022-10-13T09:57:09.718Z,14.3
2022-10-13T09:58:24.090Z,12.9
2022-10-13T09:59:15.086Z,13.0
2022-10-13T10:00:09.103Z,13.4
2022-10-13T10:01:04.997Z,12.8
2022-10-13T10:02:18.066Z,12.1
2022-10-13T10:03:22.494Z,12.2
2022-10-13T10:04:06.047Z,11.2
2022-10-13T10:05:11.706Z,11.5
2022-10-13T10:06:06.986Z,12.6
2022-10-13T10:07:12.833Z,12.0
2022-10-13T10:08:33.854Z,13.2
2022-10-13T10:09:08.816Z,12.3
2022-10-13T10:10:12.074Z,11.4
2022-10-13T10:11:08.807Z,13.0
2022-10-13T10:12:05.285Z,11.4
2022-10-13T10:13:04.060Z,12.1
2022-10-13T10:14:09.641Z,12.0
2022-10-13T10:15:09.539Z,13.1
2022-10-13T10:16:06.750Z,12.7
2022-10-13T10:17:09.047Z,12.5
2022-10-13T10:18:10.997Z,11.2
2022-10-13T10:19:07.193Z,12.2
2022-10-13T10:20:09.388Z,11.9
2022-10-13T10:21:21.088Z,12.0
2022-10-13T10:22:11.566Z,11.0
2022-10-13T10:23:08.920Z,11.1
2022-10-13T10:24:25.931Z,13.0
2022-10-13T10:25:15.089Z,12.5
2022-10-13T10:26:05.754Z,12.2
2022-10-13T10:27:17.980Z,11.2
2022-10-13T10:28:08.866Z,11.1
2022-10-13T10:29:12.095Z,12.4
2022-10-13T10:30:07.993Z,12.7
2022-10-13T10:31:24.745Z,11.4
2022-10-13T10:32:14.677Z,10.9
2022-10-13T10:33:17.611Z,10.8
2022-10-13T10:34:12.406Z,11.1
2022-10-13T10:35:22.526Z,10.7
2022-10-13T10:36:11.003Z,10.9
2022-10-13T10:37:25.294Z,12.2
2022-10-13T10:38:15.089Z,11.6
2022-10-13T10:39:11.588Z,11.3
2022-10-13T10:40:15.085Z,12.8
2022-10-13T10:41:11.606Z,10.9
2022-10-13T10:42:09.321Z,12.7
2022-10-13T10:43:15.589Z,11.5
2022-10-13T10:44:09.389Z,11.0
2022-10-13T10:45:09.245Z,12.3
2022-10-13T10:46:09.447Z,11.8
2022-10-13T10:47:06.089Z,12.5
2022-10-13T10:48:12.170Z,11.0
2022-10-13T10:49:08.743Z,11.7
2022-10-13T10:50:06.024Z,14.2
2022-10-13T10:51:05.665Z,10.5
2022-10-13T10:52:09.338Z,11.5
2022-10-13T10:53:18.143Z,11.4
2022-10-13T10:54:09.224Z,11.5
2022-10-13T10:55:15.170Z,11.1
2022-10-13T10:56:23.577Z,13.1
2022-10-13T10:57:22.664Z,11.9
2022-10-13T10:58:11.627Z,12.1
2022-10-13T10:59:22.054Z,11.0
2022-10-13T11:00:08.940Z,11.4
2022-10-13T11:01:15.164Z,12.5
2022-10-13T11:02:12.127Z,12.4
2022-10-13T11:03:12.132Z,11.9
2022-10-13T11:04:22.554Z,11.0
2022-10-13T11:05:06.302Z,11.1
2022-10-13T11:06:08.808Z,11.3
2022-10-13T11:07:09.078Z,11.2
2022-10-13T11:08:09.354Z,11.2
2022-10-13T11:09:05.310Z,12.8
2022-10-13T11:10:09.066Z,10.6
2022-10-13T11:11:29.338Z,10.4
2022-10-13T11:12:09.512Z,11.8
2022-10-13T11:13:15.122Z,11.2
2022-10-13T11:14:09.179Z,10.3
2022-10-13T11:15:09.079Z,11.3
2022-10-13T11:16:18.182Z,10.2
2022-10-13T11:17:09.047Z,10.8
2022-10-13T11:18:08.968Z,12.5
2022-10-13T11:19:09.549Z,12.8
2022-10-13T11:20:23.611Z,11.9
2022-10-13T11:21:04.724Z,10.6
2022-10-13T11:22:09.406Z,12.7
2022-10-13T11:23:09.259Z,12.4
2022-10-13T11:24:09.134Z,10.5
2022-10-13T11:25:22.652Z,11.6
2022-10-13T11:26:24.123Z,10.7
2022-10-13T11:27:11.628Z,10.7
2022-10-13T11:28:14.650Z,12.5
2022-10-13T11:29:09.402Z,12.2
2022-10-13T11:30:04.901Z,11.9
2022-10-13T11:31:09.564Z,10.6
2022-10-13T11:32:04.104Z,12.0
2022-10-13T11:33:09.574Z,10.0
2022-10-13T11:34:08.964Z,11.0
2022-10-13T11:35:08.887Z,10.3
2022-10-13T11:36:22.038Z,11.2
2022-10-13T11:37:09.276Z,12.6
2022-10-13T11:38:12.643Z,11.8
2022-10-13T11:39:22.064Z,11.4
2022-10-13T11:40:09.751Z,10.0
2022-10-13T11:41:15.113Z,10.6
2022-10-13T11:42:22.908Z,10.8
2022-10-13T11:43:22.027Z,12.4
2022-10-13T11:44:08.867Z,10.8
2022-10-13T11:45:21.171Z,11.2
2022-10-13T11:46:11.634Z,11.3
2022-10-13T11:47:11.607Z,12.1
2022-10-13T11:48:17.599Z,11.8
2022-10-13T11:49:24.114Z,12.6
2022-10-13T11:50:11.612Z,11.5
2022-10-13T11:51:11.329Z,11.6
2022-10-13T11:52:22.620Z,11.0
2022-10-13T11:53:11.618Z,10.8
2022-10-13T11:54:23.077Z,10.7
2022-10-13T11:55:08.901Z,9.7
2022-10-13T11:56:03.983Z,11.2
2022-10-13T11:57:11.616Z,11.3
2022-10-13T11:58:20.569Z,10.4
2022-10-13T11:59:04.698Z,11.9
2022-10-13T12:00:09.525Z,11.9
2022-10-13T12:01:05.785Z,11.7
2022-10-13T12:02:16.965Z,9.3
2022-10-13T12:03:03.972Z,10.0
2022-10-13T12:04:09.590Z,11.2
2022-10-13T12:05:05.957Z,9.9
2022-10-13T12:06:09.251Z,10.8
2022-10-13T12:07:06.047Z,11.6
2022-10-13T12:08:04.771Z,11.6
2022-10-13T12:09:12.104Z,10.0
2022-10-13T12:10:06.353Z,9.6
2022-10-13T12:11:04.382Z,11.7
2022-10-13T12:12:14.642Z,11.0
2022-10-13T12:13:04.446Z,10.7
2022-10-13T12:14:06.097Z,10.7
2022-10-13T12:15:08.913Z,11.5
2022-10-13T12:16:05.173Z,11.2
2022-10-13T12:17:12.217Z,11.5
2022-10-13T12:18:23.672Z,11.4
2022-10-13T12:19:07.969Z,11.0
2022-10-13T12:20:08.947Z,11.0
2022-10-13T12:21:11.573Z,10.3
2022-10-13T12:22:08.822Z,9.8
2022-10-13T12:23:09.445Z,10.8
2022-10-13T12:24:08.164Z,10.0
2022-10-13T12:25:05.586Z,9.9
2022-10-13T12:26:04.832Z,9.3
2022-10-13T12:27:11.002Z,10.2
2022-10-13T12:28:04.675Z,10.2
2022-10-13T12:29:09.379Z,9.3
2022-10-13T12:30:09.240Z,11.0
2022-10-13T12:31:04.612Z,9.9
2022-10-13T12:32:09.288Z,10.6
2022-10-13T12:33:09.139Z,10.6
2022-10-13T12:34:08.960Z,10.3
2022-10-13T12:35:21.876Z,10.1
2022-10-13T12:36:16.006Z,11.3
2022-10-13T12:37:05.886Z,10.8
2022-10-13T12:38:05.902Z,9.5
2022-10-13T12:39:06.511Z,9.9
2022-10-13T12:40:04.756Z,9.6
2022-10-13T12:41:04.668Z,9.4
2022-10-13T12:42:06.779Z,10.7
2022-10-13T12:43:04.357Z,10.6
2022-10-13T12:44:06.751Z,9.6
2022-10-13T12:45:05.275Z,10.3
2022-10-13T12:46:04.237Z,10.6
2022-10-13T12:47:04.403Z,10.9
2022-10-13T12:48:04.489Z,9.8
2022-10-13T12:49:11.410Z,9.3
2022-10-13T12:50:27.132Z,11.4
2022-10-13T12:51:09.033Z,9.9
2022-10-13T12:52:06.366Z,10.9
2022-10-13T12:53:12.702Z,10.4
2022-10-13T12:54:21.186Z,9.1
2022-10-13T12:55:09.623Z,11.1
2022-10-13T12:56:04.851Z,10.6
2022-10-13T12:57:18.373Z,10.0
2022-10-13T12:58:04.276Z,11.8
2022-10-13T12:59:04.039Z,11.2
2022-10-13T13:00:09.693Z,10.6
2022-10-13T13:01:18.268Z,9.2
2022-10-13T13:02:09.706Z,10.5
2022-10-13T13:03:05.506Z,10.3
2022-10-13T13:04:21.658Z,11.0
2022-10-13T13:05:09.105Z,11.0
2022-10-13T13:06:08.965Z,11.3
2022-10-13T13:07:05.293Z,10.7
2022-10-13T13:08:05.636Z,10.6
2022-10-13T13:09:12.171Z,10.4
2022-10-13T13:10:11.677Z,9.2
2022-10-13T13:11:05.658Z,10.0
2022-10-13T13:12:15.181Z,9.6
2022-10-13T13:13:13.603Z,10.8
2022-10-13T13:14:22.621Z,10.6
2022-10-13T13:15:19.086Z,11.3
2022-10-13T13:16:17.585Z,10.8
2022-10-13T13:17:45.301Z,11.4
2022-10-13T13:18:22.640Z,9.3
2022-10-13T13:19:04.311Z,10.4